Evansville, Illinois
Current Conditions -  °F | °C
As of 9:15 AM on Monday 24 Nov 2014 (Local Time) from KSAR Reporting Station
Broken Clouds Broken Clouds  
Wind Chill: 31°   Ceiling: 3600
Heat Index: 39°   Visibility: 10mi
Dew Point: 31°   Wind: 15mph
Humidity: 71%   Direction: 270°W
Pressure: 29.65"   Gusts: 32mph
Location:  38.09°N, 89.94°W
Report Text: KSAR 241515Z AUTO 27013G28KT 10SM BKN036 04/M01 A2965 RMK AO2 T00411008
Loading
Personal Weather Stations






























Interactive Weather Map New forecast layout! Learn more

10-Day Weather Forecast

Advertisements
Track Severe Weather on mobile